Time;durP1;ratioP1;P1;durP2;ratioP2;P2;SDS_P1;SDS_P2;PMS_P1;PMS_P2;Temp;Humidity;BMP_temperature;BMP_pressure;BME280_temperature;BME280_humidity;BME280_pressure;Samples;Min_cycle;Max_cycle;Signal;HPM_P1;HPM_P2
2023/04/09 00:00:36;;;;;;;29.90;20.33;;;10.40;99.90;;;;;;5053072;28;20504;-94
2023/04/09 00:03:02;;;;;;;27.48;19.02;;;10.40;99.90;;;;;;5054110;28;20025;-94
2023/04/09 00:05:27;;;;;;;28.90;19.25;;;10.40;99.90;;;;;;5053792;28;20464;-94
2023/04/09 00:07:53;;;;;;;29.50;19.65;;;10.30;99.90;;;;;;5054073;28;20052;-94
2023/04/09 00:10:19;;;;;;;27.83;19.17;;;10.30;99.90;;;;;;5053570;28;20033;-94
2023/04/09 00:12:44;;;;;;;32.42;20.27;;;10.30;99.90;;;;;;5053857;28;20061;-94
2023/04/09 00:15:10;;;;;;;28.10;19.08;;;10.30;99.90;;;;;;5054045;28;20029;-94
2023/04/09 00:17:36;;;;;;;28.38;19.88;;;10.30;99.90;;;;;;5053583;28;20054;-94
2023/04/09 00:20:03;;;;;;;31.67;20.80;;;10.30;99.90;;;;;;5052940;28;20040;-94
2023/04/09 00:22:28;;;;;;;33.33;20.23;;;10.30;99.90;;;;;;5054037;28;20818;-94
2023/04/09 00:24:54;;;;;;;29.83;20.58;;;10.30;99.90;;;;;;5054231;28;20128;-94
2023/04/09 00:27:19;;;;;;;29.48;19.38;;;10.40;99.90;;;;;;5054072;28;20126;-94
2023/04/09 00:29:46;;;;;;;30.98;21.13;;;10.40;99.90;;;;;;5052890;28;20473;-95
2023/04/09 00:32:12;;;;;;;32.22;20.65;;;10.30;99.90;;;;;;5053581;28;20028;-94
2023/04/09 00:34:37;;;;;;;27.83;19.10;;;10.40;99.90;;;;;;5044695;28;20029;-93
2023/04/09 00:37:03;;;;;;;32.75;21.45;;;10.30;99.90;;;;;;5053356;28;20891;-94
2023/04/09 00:39:29;;;;;;;35.88;20.23;;;10.40;99.90;;;;;;5053800;28;20092;-93
2023/04/09 00:41:56;;;;;;;31.40;21.00;;;10.40;99.90;;;;;;5046268;28;20072;-93
2023/04/09 00:44:22;;;;;;;29.52;20.10;;;10.40;99.90;;;;;;5052150;28;20028;-93
2023/04/09 00:46:48;;;;;;;31.05;19.85;;;10.40;99.90;;;;;;5053883;28;20100;-94
2023/04/09 00:49:13;;;;;;;30.05;21.17;;;10.40;99.90;;;;;;5053390;28;20478;-93
2023/04/09 00:51:39;;;;;;;29.70;19.13;;;10.40;99.90;;;;;;5053981;28;20443;-94
2023/04/09 00:54:06;;;;;;;30.95;19.70;;;10.40;99.90;;;;;;5053426;28;20029;-94
2023/04/09 00:56:32;;;;;;;31.10;21.30;;;10.40;99.90;;;;;;5052826;28;20036;-93
2023/04/09 00:58:58;;;;;;;31.58;20.65;;;10.40;99.90;;;;;;5053634;28;20064;-93
2023/04/09 01:01:24;;;;;;;32.92;20.52;;;10.40;99.90;;;;;;5054245;28;20044;-93
2023/04/09 01:03:50;;;;;;;30.05;20.10;;;10.40;99.90;;;;;;5054138;28;20063;-93
2023/04/09 01:06:29;;;;;;;32.58;20.63;;;10.30;99.90;;;;;;5053003;28;20478;-93
2023/04/09 01:09:04;;;;;;;31.30;21.48;;;10.30;99.90;;;;;;5052186;28;20029;-95
2023/04/09 01:11:58;;;;;;;32.60;20.67;;;10.30;99.90;;;;;;5038954;28;20035;-94
2023/04/09 01:14:36;;;;;;;35.53;21.40;;;10.40;99.90;;;;;;5054427;28;20043;-94
2023/04/09 01:17:11;;;;;;;32.20;21.48;;;10.30;99.90;;;;;;5055303;28;20029;-93
2023/04/09 01:19:47;;;;;;;37.33;22.05;;;10.40;99.90;;;;;;5053048;28;20025;-94
2023/04/09 01:22:31;;;;;;;36.35;22.83;;;10.30;99.90;;;;;;5051713;28;20047;-93
2023/04/09 01:25:24;;;;;;;33.20;21.42;;;10.30;99.90;;;;;;5053101;28;20033;-94
2023/04/09 01:28:14;;;;;;;36.22;21.98;;;10.30;99.90;;;;;;5053341;28;20112;-94
2023/04/09 01:30:46;;;;;;;32.75;20.70;;;10.30;99.90;;;;;;5054432;28;20081;-92
2023/04/09 01:33:13;;;;;;;32.13;21.20;;;10.30;99.90;;;;;;5052569;28;20119;-93
2023/04/09 01:35:42;;;;;;;34.78;21.77;;;10.30;99.90;;;;;;5053431;28;20033;-92
2023/04/09 01:38:09;;;;;;;33.10;21.77;;;10.30;99.90;;;;;;5053933;28;20473;-93
2023/04/09 01:40:35;;;;;;;34.95;22.08;;;10.30;99.90;;;;;;5053463;28;20096;-93
2023/04/09 01:43:02;;;;;;;34.83;21.67;;;10.20;99.90;;;;;;5052765;28;20497;-94
2023/04/09 01:45:27;;;;;;;35.30;22.40;;;10.20;99.90;;;;;;5051860;28;20063;-94
2023/04/09 01:47:54;;;;;;;35.97;22.10;;;10.20;99.90;;;;;;5054199;28;20549;-94
2023/04/09 01:50:20;;;;;;;33.67;21.50;;;10.20;99.90;;;;;;5053146;28;20029;-93
2023/04/09 01:52:46;;;;;;;33.00;22.17;;;10.20;99.90;;;;;;5045618;28;20029;-93
2023/04/09 01:55:11;;;;;;;36.08;23.05;;;10.20;99.90;;;;;;5052519;28;20029;-93
2023/04/09 01:57:37;;;;;;;36.13;22.08;;;10.10;99.90;;;;;;5051313;28;20056;-93
2023/04/09 02:00:05;;;;;;;35.08;21.63;;;10.10;99.90;;;;;;5044891;28;20394;-93
2023/04/09 02:02:41;;;;;;;33.90;21.27;;;10.10;99.90;;;;;;5053011;28;20110;-93
2023/04/09 02:05:09;;;;;;;34.53;22.33;;;10.10;99.90;;;;;;5052777;28;20032;-93
2023/04/09 02:07:40;;;;;;;33.53;20.98;;;10.00;99.90;;;;;;5054512;28;20013;-93
2023/04/09 02:10:08;;;;;;;34.05;21.17;;;10.10;99.90;;;;;;5052524;28;20048;-94
2023/04/09 02:12:37;;;;;;;37.95;23.17;;;10.00;99.90;;;;;;5054035;28;20470;-94
2023/04/09 02:15:04;;;;;;;34.28;21.92;;;10.00;99.90;;;;;;5053003;28;20083;-93
2023/04/09 02:17:30;;;;;;;38.78;22.70;;;9.90;99.90;;;;;;5056334;28;20086;-93
2023/04/09 02:19:56;;;;;;;38.65;22.77;;;10.00;99.90;;;;;;5043493;28;20025;-93
2023/04/09 02:22:21;;;;;;;36.45;21.23;;;10.00;99.90;;;;;;5055983;28;20024;-94
2023/04/09 02:24:47;;;;;;;35.45;21.85;;;10.00;99.90;;;;;;5055136;28;20500;-94
2023/04/09 02:27:13;;;;;;;38.10;23.52;;;10.00;99.90;;;;;;5056063;28;20024;-94
2023/04/09 02:29:39;;;;;;;37.83;22.15;;;9.90;99.90;;;;;;5042817;28;20025;-94
2023/04/09 02:32:05;;;;;;;38.72;23.70;;;10.00;99.90;;;;;;5042591;28;20091;-93
2023/04/09 02:34:31;;;;;;;40.78;23.15;;;10.00;99.90;;;;;;5054020;28;20115;-93
2023/04/09 02:36:56;;;;;;;37.15;21.77;;;10.00;99.90;;;;;;5056124;28;20052;-93
2023/04/09 02:39:22;;;;;;;40.75;23.25;;;10.00;99.90;;;;;;5056371;28;20074;-94
2023/04/09 02:41:47;;;;;;;39.30;23.15;;;9.90;99.90;;;;;;5057249;28;20029;-93
2023/04/09 02:44:13;;;;;;;36.20;21.85;;;9.90;99.90;;;;;;5056348;28;20017;-92
2023/04/09 02:46:39;;;;;;;39.03;24.30;;;9.90;99.90;;;;;;5052385;28;20029;-94
2023/04/09 02:49:05;;;;;;;40.47;23.63;;;9.90;99.90;;;;;;5043407;28;20028;-94
2023/04/09 02:51:34;;;;;;;38.45;22.88;;;9.90;99.90;;;;;;5054490;28;20436;-94
2023/04/09 02:53:59;;;;;;;36.33;22.42;;;9.90;99.90;;;;;;5056169;28;20028;-93
2023/04/09 02:56:25;;;;;;;35.83;22.20;;;9.90;99.90;;;;;;5055216;28;20037;-92
2023/04/09 02:58:52;;;;;;;37.15;23.50;;;9.90;99.90;;;;;;5055578;28;20037;-93
2023/04/09 03:01:18;;;;;;;36.78;22.73;;;9.90;99.90;;;;;;5054956;28;20025;-94
2023/04/09 03:03:44;;;;;;;39.08;24.63;;;9.90;99.90;;;;;;5055717;28;20055;-93
2023/04/09 03:06:10;;;;;;;36.50;22.83;;;9.90;99.90;;;;;;5055585;28;20474;-93
2023/04/09 03:08:35;;;;;;;35.95;22.13;;;9.80;99.90;;;;;;5054805;28;20024;-94
2023/04/09 03:11:01;;;;;;;37.72;23.13;;;9.80;99.90;;;;;;5055638;28;20029;-94
2023/04/09 03:13:27;;;;;;;37.30;22.92;;;9.80;99.90;;;;;;5055242;28;20071;-93
2023/04/09 03:15:52;;;;;;;43.80;24.33;;;9.80;99.90;;;;;;5055116;28;20110;-93
2023/04/09 03:18:18;;;;;;;34.97;21.85;;;9.80;99.90;;;;;;5054839;28;20029;-93
2023/04/09 03:20:44;;;;;;;38.67;23.27;;;9.80;99.90;;;;;;5055348;28;20056;-93
2023/04/09 03:23:10;;;;;;;40.50;24.77;;;9.80;99.90;;;;;;5055440;28;20017;-93
2023/04/09 03:25:36;;;;;;;38.03;22.42;;;9.80;99.90;;;;;;5055144;28;20106;-93
2023/04/09 03:28:02;;;;;;;40.67;24.15;;;9.80;99.90;;;;;;5053628;28;20143;-93
2023/04/09 03:30:28;;;;;;;40.55;23.55;;;9.80;99.90;;;;;;5054358;28;20035;-93
2023/04/09 03:32:53;;;;;;;41.15;23.90;;;9.80;99.90;;;;;;5054330;28;20021;-94
2023/04/09 03:35:19;;;;;;;53.53;29.58;;;9.80;99.90;;;;;;5055059;28;20039;-93
2023/04/09 03:37:45;;;;;;;51.67;28.40;;;9.80;99.90;;;;;;5054487;28;20182;-93
2023/04/09 03:40:11;;;;;;;58.00;32.28;;;9.80;99.90;;;;;;5053950;28;20032;-94
2023/04/09 03:42:36;;;;;;;68.55;36.83;;;9.80;99.90;;;;;;5051881;28;20032;-93
2023/04/09 03:45:03;;;;;;;66.07;34.72;;;9.80;99.90;;;;;;5054249;28;20043;-93
2023/04/09 03:47:29;;;;;;;65.30;35.60;;;9.80;99.90;;;;;;5054828;28;20039;-92
2023/04/09 03:49:54;;;;;;;69.05;37.45;;;9.80;99.90;;;;;;5055203;28;20020;-93
2023/04/09 03:52:20;;;;;;;64.50;35.53;;;9.80;99.90;;;;;;5054248;28;20428;-93
2023/04/09 03:54:46;;;;;;;65.47;35.00;;;9.80;99.90;;;;;;5047960;28;20473;-93
2023/04/09 03:57:11;;;;;;;65.63;35.60;;;9.80;99.90;;;;;;5042687;28;20096;-94
2023/04/09 03:59:37;;;;;;;61.28;33.95;;;9.80;99.90;;;;;;5053210;28;20044;-94
2023/04/09 04:02:02;;;;;;;63.28;34.08;;;9.70;99.90;;;;;;5055661;28;20508;-93
2023/04/09 04:04:28;;;;;;;57.75;32.22;;;9.80;99.90;;;;;;5054918;28;20439;-93
2023/04/09 04:06:53;;;;;;;53.25;31.65;;;9.70;99.90;;;;;;5054560;28;20029;-93
2023/04/09 04:09:19;;;;;;;48.13;28.73;;;9.70;99.90;;;;;;5039090;28;20036;-94
2023/04/09 04:11:44;;;;;;;50.97;29.52;;;9.70;99.90;;;;;;5035291;28;20029;-93
2023/04/09 04:14:10;;;;;;;46.75;27.85;;;9.70;99.90;;;;;;5036542;28;20393;-94
2023/04/09 04:16:35;;;;;;;47.05;27.27;;;9.70;99.90;;;;;;5047030;28;20033;-94
2023/04/09 04:19:01;;;;;;;44.42;26.02;;;9.60;99.90;;;;;;5053649;28;20033;-94
2023/04/09 04:21:26;;;;;;;43.17;26.40;;;9.60;99.90;;;;;;5040584;28;20061;-93
2023/04/09 04:23:52;;;;;;;41.85;24.50;;;9.60;99.90;;;;;;5053868;28;20031;-93
2023/04/09 04:26:17;;;;;;;43.78;25.77;;;9.60;99.90;;;;;;5054353;28;20131;-93
2023/04/09 04:28:43;;;;;;;39.70;23.52;;;9.60;99.90;;;;;;5053094;28;20036;-93
2023/04/09 04:31:09;;;;;;;41.20;23.98;;;9.60;99.90;;;;;;5055277;28;20107;-94
2023/04/09 04:33:36;;;;;;;39.35;23.85;;;9.60;99.90;;;;;;5037502;28;20048;-92
2023/04/09 04:36:06;;;;;;;38.83;23.45;;;9.60;99.90;;;;;;5051109;28;20029;-92
2023/04/09 04:38:33;;;;;;;41.25;24.92;;;9.50;99.90;;;;;;5051396;28;20511;-93
2023/04/09 04:40:59;;;;;;;43.00;23.50;;;9.50;99.90;;;;;;5054180;28;20040;-93
2023/04/09 04:43:24;;;;;;;38.90;23.50;;;9.40;99.90;;;;;;5052843;28;20025;-93
2023/04/09 04:45:50;;;;;;;40.38;24.63;;;9.40;99.90;;;;;;5053504;28;20135;-91
2023/04/09 04:48:15;;;;;;;43.42;24.80;;;9.40;99.90;;;;;;5052932;28;20021;-93
2023/04/09 04:50:41;;;;;;;41.00;23.92;;;9.40;99.90;;;;;;5053423;28;20082;-93
2023/04/09 04:53:07;;;;;;;40.80;24.77;;;9.30;99.90;;;;;;5054902;28;20043;-93
2023/04/09 04:55:35;;;;;;;40.85;24.00;;;9.30;99.90;;;;;;5051577;28;20090;-92
2023/04/09 04:58:00;;;;;;;40.72;23.65;;;9.30;99.90;;;;;;5053590;28;20036;-92
2023/04/09 05:00:26;;;;;;;40.70;25.40;;;9.20;99.90;;;;;;5051243;28;20045;-93
2023/04/09 05:02:52;;;;;;;44.83;26.05;;;9.20;99.90;;;;;;5055427;28;20025;-93
2023/04/09 05:05:17;;;;;;;41.63;24.10;;;9.20;99.90;;;;;;5053326;28;20043;-93
2023/04/09 05:07:43;;;;;;;43.95;25.05;;;9.10;99.90;;;;;;5054299;28;20493;-92
2023/04/09 05:10:09;;;;;;;42.45;24.50;;;9.00;99.90;;;;;;5056230;28;20025;-93
2023/04/09 05:12:34;;;;;;;38.90;22.02;;;9.00;99.90;;;;;;5050525;28;20504;-92
2023/04/09 05:15:00;;;;;;;41.28;22.83;;;8.90;99.90;;;;;;5053253;28;20025;-94
2023/04/09 05:17:25;;;;;;;41.13;23.00;;;8.70;99.90;;;;;;5051780;28;20028;-93
2023/04/09 05:19:51;;;;;;;39.83;23.10;;;8.60;99.90;;;;;;5035881;28;20082;-92
2023/04/09 05:22:17;;;;;;;36.55;21.55;;;8.50;99.90;;;;;;5037474;28;20044;-93
2023/04/09 05:24:43;;;;;;;35.90;20.15;;;8.40;99.90;;;;;;5050201;28;20021;-93
2023/04/09 05:27:08;;;;;;;42.45;22.92;;;8.30;99.90;;;;;;5056768;28;20064;-93
2023/04/09 05:29:34;;;;;;;36.08;20.85;;;8.20;99.90;;;;;;5053111;28;20096;-93
2023/04/09 05:32:00;;;;;;;38.40;20.80;;;8.10;99.90;;;;;;5047650;28;20034;-94
2023/04/09 05:34:25;;;;;;;31.23;17.90;;;8.10;99.90;;;;;;5047265;28;20036;-92
2023/04/09 05:36:51;;;;;;;39.53;21.10;;;8.00;99.90;;;;;;5050318;28;20021;-93
2023/04/09 05:39:17;;;;;;;36.90;20.83;;;8.00;99.90;;;;;;5051820;28;20024;-94
2023/04/09 05:41:43;;;;;;;37.47;21.38;;;7.90;99.90;;;;;;5041848;28;20165;-92
2023/04/09 05:44:10;;;;;;;38.78;19.38;;;7.90;99.90;;;;;;5048612;28;20045;-92
2023/04/09 05:46:35;;;;;;;36.83;20.23;;;7.90;99.90;;;;;;5051836;28;20052;-93
2023/04/09 05:49:01;;;;;;;32.08;19.52;;;7.90;99.90;;;;;;5054243;28;20700;-93
2023/04/09 05:51:26;;;;;;;37.40;21.15;;;7.90;99.90;;;;;;5056839;28;20092;-92
2023/04/09 05:53:52;;;;;;;30.13;17.58;;;7.90;99.90;;;;;;5054026;28;20029;-93
2023/04/09 05:56:18;;;;;;;35.95;19.25;;;7.90;99.90;;;;;;5048809;28;20044;-93
2023/04/09 05:58:43;;;;;;;35.08;19.95;;;7.90;99.90;;;;;;5053807;28;22250;-93
2023/04/09 06:01:10;;;;;;;35.00;19.75;;;7.90;99.90;;;;;;5054443;28;20029;-93
2023/04/09 06:03:35;;;;;;;38.80;21.80;;;8.00;99.90;;;;;;5053085;28;20029;-93
2023/04/09 06:06:01;;;;;;;37.40;20.08;;;8.00;99.90;;;;;;5052964;28;20037;-92
2023/04/09 06:08:26;;;;;;;36.97;21.25;;;8.00;99.90;;;;;;5044264;28;20024;-91
2023/04/09 06:10:52;;;;;;;38.38;21.13;;;8.00;99.90;;;;;;5048373;28;20044;-93
2023/04/09 06:13:17;;;;;;;37.63;21.05;;;8.00;99.90;;;;;;5048184;28;20083;-92
2023/04/09 06:15:43;;;;;;;34.90;21.52;;;8.00;99.90;;;;;;5044007;28;20062;-92
2023/04/09 06:18:08;;;;;;;36.53;21.00;;;8.00;99.90;;;;;;5051771;28;20044;-89
2023/04/09 06:20:34;;;;;;;38.55;21.83;;;8.10;99.90;;;;;;5052090;28;20405;-93
2023/04/09 06:22:59;;;;;;;38.55;20.98;;;8.20;99.90;;;;;;5046904;28;20347;-93
2023/04/09 06:25:25;;;;;;;38.67;22.08;;;8.20;99.90;;;;;;5053062;28;20041;-92
2023/04/09 06:27:51;;;;;;;32.85;19.45;;;8.20;99.90;;;;;;5064981;28;20044;-93
2023/04/09 06:30:16;;;;;;;42.22;23.85;;;8.30;99.90;;;;;;5055642;28;20021;-93
2023/04/09 06:32:44;;;;;;;42.17;22.92;;;8.30;99.90;;;;;;5052946;28;20017;-93
2023/04/09 06:35:09;;;;;;;40.95;22.33;;;8.30;99.90;;;;;;5053767;28;20036;-92
2023/04/09 06:37:35;;;;;;;37.53;21.50;;;8.40;99.90;;;;;;5055836;28;20136;-93
2023/04/09 06:40:02;;;;;;;42.10;23.50;;;8.40;99.90;;;;;;5048757;28;20485;-93
2023/04/09 06:42:27;;;;;;;37.10;21.40;;;8.40;99.90;;;;;;5049615;28;20029;-92
2023/04/09 06:44:53;;;;;;;43.17;25.35;;;8.50;99.90;;;;;;5049955;28;20104;-93
2023/04/09 06:47:18;;;;;;;40.55;21.88;;;8.50;99.90;;;;;;5047570;28;20489;-94
2023/04/09 06:49:44;;;;;;;41.08;23.48;;;8.50;99.90;;;;;;5051349;28;20024;-93
2023/04/09 06:52:09;;;;;;;38.95;22.60;;;8.60;99.90;;;;;;5051384;28;20033;-93
2023/04/09 06:54:35;;;;;;;38.30;22.08;;;8.70;99.90;;;;;;5052598;28;20067;-91
2023/04/09 06:57:00;;;;;;;41.33;24.30;;;8.70;99.90;;;;;;5051818;28;20049;-93
2023/04/09 06:59:26;;;;;;;42.33;21.85;;;8.80;99.90;;;;;;5048954;28;20059;-93
2023/04/09 07:01:51;;;;;;;38.80;22.27;;;8.90;99.90;;;;;;5050992;28;20017;-93
2023/04/09 07:04:17;;;;;;;40.05;23.20;;;8.90;99.90;;;;;;5054226;28;20025;-93
2023/04/09 07:06:43;;;;;;;38.15;22.55;;;9.00;99.90;;;;;;5052499;28;20052;-84
2023/04/09 07:09:08;;;;;;;38.45;22.58;;;9.10;99.90;;;;;;5052191;28;20501;-93
2023/04/09 07:11:34;;;;;;;38.40;22.27;;;9.10;99.90;;;;;;5055037;28;20472;-93
2023/04/09 07:13:59;;;;;;;37.78;23.05;;;9.20;99.90;;;;;;5055814;28;20021;-92
2023/04/09 07:16:25;;;;;;;39.78;23.35;;;9.30;99.90;;;;;;5045521;28;20037;-92
2023/04/09 07:18:50;;;;;;;38.17;22.52;;;9.40;99.90;;;;;;5052836;28;20086;-93
2023/04/09 07:21:16;;;;;;;43.53;24.85;;;9.50;99.90;;;;;;5051358;28;20025;-94
2023/04/09 07:23:41;;;;;;;39.90;24.80;;;9.60;99.90;;;;;;5054639;28;20028;-94
2023/04/09 07:26:07;;;;;;;37.08;23.38;;;9.70;99.90;;;;;;5050785;28;20082;-94
2023/04/09 07:28:33;;;;;;;42.30;23.15;;;9.80;99.90;;;;;;5054705;28;20043;-94
2023/04/09 07:31:01;;;;;;;40.97;24.25;;;9.90;99.90;;;;;;5054113;28;20092;-93
2023/04/09 07:33:28;;;;;;;39.83;24.70;;;10.00;99.90;;;;;;5053797;28;20028;-94
2023/04/09 07:35:53;;;;;;;40.67;23.88;;;10.10;99.90;;;;;;5054842;28;20473;-93
2023/04/09 07:38:19;;;;;;;37.03;23.45;;;10.20;99.90;;;;;;5054749;28;20158;-93
2023/04/09 07:40:44;;;;;;;39.08;23.67;;;10.20;99.90;;;;;;5053022;28;20272;-93
2023/04/09 07:43:10;;;;;;;36.95;23.25;;;10.30;99.90;;;;;;5053362;28;20082;-93
2023/04/09 07:45:36;;;;;;;42.83;24.67;;;10.40;99.90;;;;;;5054287;28;20044;-93
2023/04/09 07:48:01;;;;;;;36.25;23.20;;;10.40;99.90;;;;;;5053362;28;20436;-86
2023/04/09 07:50:27;;;;;;;34.65;21.30;;;10.50;99.90;;;;;;5053233;28;20025;-85
2023/04/09 07:52:53;;;;;;;35.92;23.08;;;10.70;99.90;;;;;;5054013;28;20527;-93
2023/04/09 07:55:19;;;;;;;34.08;22.58;;;10.80;99.90;;;;;;5054133;28;20025;-93
2023/04/09 07:57:44;;;;;;;39.65;25.30;;;10.90;99.90;;;;;;5054076;28;20078;-94
2023/04/09 08:00:11;;;;;;;35.90;22.45;;;11.10;99.90;;;;;;5051586;28;20064;-93
2023/04/09 08:02:36;;;;;;;37.60;22.90;;;11.30;99.90;;;;;;5050841;28;20060;-94
2023/04/09 08:05:02;;;;;;;34.38;22.20;;;11.40;99.90;;;;;;5051182;28;20041;-95
2023/04/09 08:07:27;;;;;;;35.17;22.15;;;11.60;99.90;;;;;;5047948;28;20017;-94
2023/04/09 08:09:53;;;;;;;33.47;22.48;;;11.60;99.90;;;;;;5050567;28;20373;-93
2023/04/09 08:12:18;;;;;;;32.38;20.42;;;11.70;99.90;;;;;;5052519;28;20499;-95
2023/04/09 08:14:44;;;;;;;30.67;20.05;;;11.70;99.90;;;;;;5051885;28;20029;-92
2023/04/09 08:17:09;;;;;;;31.33;20.83;;;11.70;99.90;;;;;;5027416;28;20097;-93
2023/04/09 08:19:35;;;;;;;32.47;19.70;;;11.80;99.90;;;;;;5050504;28;20083;-92
2023/04/09 08:22:01;;;;;;;30.63;19.50;;;11.80;99.90;;;;;;5049217;28;20026;-94
2023/04/09 08:24:27;;;;;;;32.58;20.38;;;11.80;99.90;;;;;;5047737;28;20573;-94
2023/04/09 08:26:53;;;;;;;29.50;18.83;;;11.80;99.90;;;;;;5044275;28;20116;-93
2023/04/09 08:29:18;;;;;;;28.48;19.73;;;11.90;99.90;;;;;;5052845;28;20029;-94
2023/04/09 08:31:44;;;;;;;32.22;19.02;;;12.00;99.90;;;;;;5050415;28;20036;-92
2023/04/09 08:34:09;;;;;;;29.17;18.80;;;12.10;99.90;;;;;;5052905;28;20078;-92
2023/04/09 08:36:35;;;;;;;28.90;17.70;;;12.10;99.90;;;;;;5052873;28;20056;-94
2023/04/09 08:39:02;;;;;;;30.25;18.75;;;12.20;99.90;;;;;;5044913;28;20082;-92
2023/04/09 08:41:28;;;;;;;29.05;18.55;;;12.30;99.90;;;;;;5051073;28;20032;-93
2023/04/09 08:43:55;;;;;;;32.08;19.48;;;12.40;99.90;;;;;;5049914;28;20228;-93
2023/04/09 08:46:21;;;;;;;29.98;19.52;;;12.50;99.90;;;;;;5038990;28;20512;-93
2023/04/09 08:48:48;;;;;;;28.63;18.10;;;12.60;99.90;;;;;;5042289;28;20037;-94
2023/04/09 08:51:15;;;;;;;29.10;18.95;;;12.70;99.90;;;;;;5047546;28;20106;-95
2023/04/09 08:53:46;;;;;;;28.70;18.08;;;12.90;99.90;;;;;;5050209;28;20431;-92
2023/04/09 08:56:15;;;;;;;29.00;18.50;;;12.90;99.90;;;;;;5058673;28;20033;-94
2023/04/09 08:58:42;;;;;;;25.23;17.33;;;13.00;99.90;;;;;;5053483;28;20021;-93
2023/04/09 09:01:37;;;;;;;27.00;17.23;;;13.10;99.90;;;;;;5049184;28;20021;-92
2023/04/09 09:04:07;;;;;;;22.98;16.33;;;13.20;99.90;;;;;;5040756;28;20510;-91
2023/04/09 09:06:36;;;;;;;25.20;16.48;;;13.20;99.90;;;;;;5053065;28;20121;-93
2023/04/09 09:09:07;;;;;;;25.35;15.90;;;13.20;99.90;;;;;;5049812;28;20039;-92
2023/04/09 09:11:34;;;;;;;22.63;16.25;;;13.30;99.90;;;;;;5050841;28;20025;-91
2023/04/09 09:14:05;;;;;;;24.45;15.35;;;13.40;99.90;;;;;;5050804;28;20115;-92
2023/04/09 09:16:33;;;;;;;23.27;15.68;;;13.40;99.90;;;;;;5047479;28;20017;-92
2023/04/09 09:19:00;;;;;;;21.63;14.68;;;13.50;99.90;;;;;;5052136;28;20028;-93
2023/04/09 09:21:27;;;;;;;23.42;14.38;;;13.50;99.90;;;;;;5046088;28;20085;-85
2023/04/09 09:23:53;;;;;;;22.95;15.23;;;13.60;99.90;;;;;;5047871;28;20354;-93
2023/04/09 09:26:23;;;;;;;23.48;14.80;;;13.70;99.90;;;;;;5048986;28;20139;-94
2023/04/09 09:28:49;;;;;;;22.77;14.15;;;13.60;99.90;;;;;;5049705;28;20028;-95
2023/04/09 09:31:17;;;;;;;21.30;14.00;;;13.60;99.90;;;;;;5049528;28;20025;-93
2023/04/09 09:33:43;;;;;;;20.85;14.05;;;13.60;99.90;;;;;;5051473;28;20033;-91
2023/04/09 09:36:09;;;;;;;22.33;14.02;;;13.60;99.90;;;;;;5047712;28;20041;-94
2023/04/09 09:38:56;;;;;;;20.52;13.95;;;13.60;99.90;;;;;;5053190;28;20056;-93
2023/04/09 09:41:23;;;;;;;20.42;14.45;;;13.70;99.90;;;;;;5047159;28;20108;-84
2023/04/09 09:43:50;;;;;;;23.25;14.38;;;13.80;99.90;;;;;;5054842;28;20083;-93
2023/04/09 09:46:16;;;;;;;20.70;13.55;;;13.90;99.90;;;;;;5048923;28;20033;-93
2023/04/09 09:48:42;;;;;;;22.75;14.50;;;14.00;99.90;;;;;;5048608;28;20465;-93
2023/04/09 09:51:09;;;;;;;21.67;13.98;;;14.00;99.90;;;;;;5052632;28;20029;-94
2023/04/09 09:53:36;;;;;;;21.80;14.02;;;14.10;99.90;;;;;;5056999;28;20033;-93
2023/04/09 09:56:04;;;;;;;20.77;13.60;;;14.10;99.90;;;;;;5054297;28;20116;-94
2023/04/09 09:58:46;;;;;;;20.30;14.48;;;14.20;99.90;;;;;;5049967;28;20080;-92
2023/04/09 10:01:13;;;;;;;22.20;14.75;;;14.10;99.90;;;;;;5049744;28;20033;-93
2023/04/09 10:03:41;;;;;;;19.88;13.30;;;14.20;99.90;;;;;;5048684;28;20025;-94
2023/04/09 10:06:08;;;;;;;22.40;14.18;;;14.30;99.90;;;;;;5065206;28;20403;-94
2023/04/09 10:08:37;;;;;;;19.65;13.40;;;14.30;99.90;;;;;;5046306;28;20112;-94
2023/04/09 10:11:04;;;;;;;18.45;12.55;;;14.30;99.90;;;;;;5049613;28;20029;-94
2023/04/09 10:13:36;;;;;;;17.17;12.00;;;14.40;99.90;;;;;;5049770;28;20389;-94
2023/04/09 10:16:03;;;;;;;17.85;11.13;;;14.40;99.90;;;;;;5057200;28;20025;-94
2023/04/09 10:18:33;;;;;;;14.30;9.52;;;14.50;99.90;;;;;;5050472;28;20091;-94
2023/04/09 10:21:31;;;;;;;14.82;10.07;;;14.60;99.90;;;;;;5046944;28;20037;-93
2023/04/09 10:23:57;;;;;;;14.98;9.68;;;14.60;99.90;;;;;;5055396;28;20497;-94
2023/04/09 10:26:29;;;;;;;12.88;8.60;;;14.60;99.90;;;;;;5047983;28;20047;-94
2023/04/09 10:29:15;;;;;;;14.80;9.57;;;14.70;99.90;;;;;;5055451;28;20474;-93
2023/04/09 10:31:50;;;;;;;13.43;8.55;;;14.80;99.90;;;;;;5045615;28;20528;-93
2023/04/09 10:34:17;;;;;;;13.75;9.13;;;14.80;99.90;;;;;;5046389;28;20429;-94
2023/04/09 10:36:44;;;;;;;13.13;8.98;;;14.90;99.90;;;;;;5050046;28;20025;-93
2023/04/09 10:39:13;;;;;;;13.23;8.23;;;14.90;98.80;;;;;;5053167;28;20094;-94
2023/04/09 10:41:40;;;;;;;13.13;8.68;;;14.90;98.30;;;;;;5051704;28;20033;-93
2023/04/09 10:44:18;;;;;;;13.27;8.13;;;14.90;98.00;;;;;;5054271;28;20021;-91
2023/04/09 10:46:44;;;;;;;13.73;9.00;;;15.00;98.10;;;;;;5054124;28;20120;-93
2023/04/09 10:49:25;;;;;;;13.70;8.68;;;15.10;97.70;;;;;;5049422;28;20021;-91
2023/04/09 10:52:06;;;;;;;13.98;8.98;;;15.30;97.60;;;;;;5052397;28;20059;-94
2023/04/09 10:54:32;;;;;;;15.32;8.63;;;15.40;97.60;;;;;;5046440;28;20029;-94
2023/04/09 10:57:06;;;;;;;17.13;9.93;;;15.50;97.70;;;;;;5049209;28;20048;-91
2023/04/09 10:59:33;;;;;;;13.48;9.07;;;15.60;96.70;;;;;;5051156;28;20048;-93
2023/04/09 11:01:58;;;;;;;14.73;8.52;;;15.60;96.40;;;;;;5049506;28;20060;-91
2023/04/09 11:04:38;;;;;;;14.20;9.93;;;15.60;96.00;;;;;;5051562;28;20033;-94
2023/04/09 11:07:05;;;;;;;13.60;8.85;;;15.70;95.90;;;;;;5054439;28;20029;-92
2023/04/09 11:09:34;;;;;;;13.45;8.43;;;15.70;95.00;;;;;;5052354;28;20033;-93
2023/04/09 11:12:00;;;;;;;11.98;8.57;;;15.80;94.60;;;;;;5052459;28;20032;-94
2023/04/09 11:14:26;;;;;;;12.00;8.15;;;16.00;94.50;;;;;;5032160;28;20187;-94
2023/04/09 11:16:52;;;;;;;12.38;8.13;;;16.10;94.10;;;;;;5046388;28;20106;-92
2023/04/09 11:19:19;;;;;;;13.13;8.27;;;16.20;93.80;;;;;;5049208;28;20044;-92
2023/04/09 11:21:46;;;;;;;10.75;6.80;;;16.30;93.90;;;;;;5051897;28;20393;-92
2023/04/09 11:24:12;;;;;;;12.52;7.60;;;16.40;93.80;;;;;;5052411;28;20088;-92
2023/04/09 11:26:37;;;;;;;12.35;7.53;;;16.50;93.60;;;;;;5048448;28;20121;-92
2023/04/09 11:29:07;;;;;;;12.10;7.82;;;16.60;93.30;;;;;;5052263;28;20473;-91
2023/04/09 11:31:33;;;;;;;11.57;8.07;;;16.70;91.90;;;;;;5052580;28;20021;-92
2023/04/09 11:33:59;;;;;;;13.63;9.05;;;16.70;91.50;;;;;;5053332;28;20017;-91
2023/04/09 11:36:26;;;;;;;11.27;8.70;;;16.60;91.20;;;;;;5050906;28;20035;-91
2023/04/09 11:38:53;;;;;;;12.68;9.07;;;16.70;91.40;;;;;;5053627;28;20029;-93
2023/04/09 11:41:33;;;;;;;13.27;9.48;;;16.70;91.50;;;;;;5053312;28;20017;-92
2023/04/09 11:44:02;;;;;;;12.45;8.45;;;16.80;91.10;;;;;;5051357;28;20047;-91
2023/04/09 11:46:28;;;;;;;14.30;8.48;;;16.80;90.60;;;;;;5047673;28;20045;-92
2023/04/09 11:48:55;;;;;;;11.88;7.45;;;16.80;90.30;;;;;;5052974;28;20036;-92
2023/04/09 11:51:21;;;;;;;10.23;7.60;;;16.70;90.00;;;;;;5050820;28;20093;-92
2023/04/09 11:53:48;;;;;;;11.48;7.75;;;16.70;90.20;;;;;;5047345;28;20036;-92
2023/04/09 11:56:14;;;;;;;11.65;7.53;;;16.70;89.80;;;;;;5048391;28;20481;-93
2023/04/09 11:58:45;;;;;;;10.50;7.38;;;16.80;89.50;;;;;;5050183;28;20037;-91
2023/04/09 12:01:11;;;;;;;10.95;6.57;;;16.80;88.50;;;;;;5046654;28;20079;-91
2023/04/09 12:03:37;;;;;;;10.07;6.38;;;16.70;87.30;;;;;;5051497;28;20037;-93
2023/04/09 12:06:04;;;;;;;7.78;5.68;;;16.80;86.80;;;;;;5051642;28;20087;-91
2023/04/09 12:08:30;;;;;;;10.23;7.15;;;16.80;86.60;;;;;;5053051;28;20084;-90
2023/04/09 12:10:56;;;;;;;8.88;6.35;;;16.80;86.10;;;;;;5052388;28;20029;-92
2023/04/09 12:13:31;;;;;;;10.85;6.63;;;16.80;85.10;;;;;;5048883;28;20025;-94
2023/04/09 12:15:59;;;;;;;8.32;5.70;;;16.90;84.90;;;;;;5050552;28;20024;-91
2023/04/09 12:18:25;;;;;;;9.23;6.78;;;17.00;83.70;;;;;;5050377;28;20029;-91
2023/04/09 12:20:50;;;;;;;9.88;6.07;;;16.90;82.70;;;;;;5051411;28;20025;-91
2023/04/09 12:23:16;;;;;;;10.60;6.38;;;17.00;82.30;;;;;;5049609;28;20025;-91
2023/04/09 12:25:44;;;;;;;10.27;6.15;;;17.10;81.60;;;;;;5052821;28;20167;-92
2023/04/09 12:28:14;;;;;;;10.60;6.97;;;17.10;81.90;;;;;;5052177;28;20024;-90
2023/04/09 12:30:40;;;;;;;11.20;7.28;;;17.10;80.40;;;;;;5050754;28;20056;-92
2023/04/09 12:33:05;;;;;;;9.50;6.70;;;17.10;81.20;;;;;;5051694;28;20048;-93